Time;durP1;ratioP1;P1;durP2;ratioP2;P2;SDS_P1;SDS_P2;PMS_P1;PMS_P2;Temp;Humidity;BMP_temperature;BMP_pressure;BME280_temperature;BME280_humidity;BME280_pressure;Samples;Min_cycle;Max_cycle;Signal;HPM_P1;HPM_P2
2024/01/03 00:00:26;;;;;;;33.00;3.83;;;8.40;99.90;;;;;;5034461;28;20077;-75
2024/01/03 00:02:52;;;;;;;25.77;5.32;;;8.50;99.90;;;;;;5034326;28;20416;-75
2024/01/03 00:05:38;;;;;;;17.58;4.60;;;8.50;99.90;;;;;;5034417;28;20057;-75
2024/01/03 00:08:05;;;;;;;17.33;3.30;;;8.40;99.90;;;;;;5034748;28;20056;-75
2024/01/03 00:10:49;;;;;;;23.98;2.80;;;8.40;99.90;;;;;;5033991;28;20553;-75
2024/01/03 00:13:31;;;;;;;15.50;2.28;;;8.50;99.90;;;;;;5034558;28;20045;-75
2024/01/03 00:15:59;;;;;;;24.63;3.17;;;8.40;99.90;;;;;;5034603;28;20041;-75
2024/01/03 00:18:37;;;;;;;20.20;2.83;;;8.50;99.90;;;;;;5034130;28;20396;-75
2024/01/03 00:21:07;;;;;;;17.63;2.63;;;8.40;99.90;;;;;;5034038;28;20091;-75
2024/01/03 00:23:52;;;;;;;17.45;2.20;;;8.40;99.90;;;;;;5035226;28;20077;-75
2024/01/03 00:26:18;;;;;;;14.20;2.55;;;8.40;99.90;;;;;;5034086;28;20584;-75
2024/01/03 00:28:45;;;;;;;19.67;2.65;;;8.40;99.90;;;;;;5034333;28;20147;-75
2024/01/03 00:31:38;;;;;;;13.02;2.38;;;8.40;99.90;;;;;;5034217;28;20041;-75
2024/01/03 00:34:24;;;;;;;;;;;8.40;99.90;;;;;;5034249;28;20049;-75
2024/01/03 00:36:51;;;;;;;19.20;2.00;;;8.40;99.90;;;;;;5033593;28;19921;-75
2024/01/03 00:39:30;;;;;;;17.13;2.25;;;8.40;99.90;;;;;;5033659;28;20052;-75
2024/01/03 00:41:57;;;;;;;19.88;2.15;;;8.40;99.90;;;;;;5033945;28;20087;-75
2024/01/03 00:44:23;;;;;;;18.45;2.33;;;8.40;99.90;;;;;;5034927;28;20051;-75
2024/01/03 00:46:49;;;;;;;18.70;2.75;;;8.40;99.90;;;;;;5033436;28;20123;-75
2024/01/03 00:49:15;;;;;;;14.35;2.28;;;8.30;99.90;;;;;;5033824;28;20449;-75
2024/01/03 00:51:45;;;;;;;21.13;2.13;;;8.40;99.90;;;;;;5033614;28;20095;-76
2024/01/03 00:54:11;;;;;;;16.38;3.05;;;8.30;99.90;;;;;;5033897;28;20504;-76
2024/01/03 00:56:37;;;;;;;22.50;3.22;;;8.40;99.90;;;;;;5033520;28;20057;-76
2024/01/03 00:59:02;;;;;;;19.02;4.55;;;8.30;99.90;;;;;;5033759;28;20049;-76
2024/01/03 01:01:28;;;;;;;16.30;2.78;;;8.30;99.90;;;;;;5033628;28;20141;-75
2024/01/03 01:03:54;;;;;;;27.73;2.35;;;8.30;99.90;;;;;;5033582;28;20077;-76
2024/01/03 01:06:19;;;;;;;21.92;2.90;;;8.30;99.90;;;;;;5033613;28;20441;-76
2024/01/03 01:08:45;;;;;;;18.50;3.45;;;8.30;99.90;;;;;;5032929;28;20527;-76
2024/01/03 01:11:11;;;;;;;19.38;3.63;;;8.30;99.90;;;;;;5032964;28;20404;-75
2024/01/03 01:13:39;;;;;;;28.33;4.05;;;8.30;99.90;;;;;;5033323;28;20484;-75
2024/01/03 01:16:05;;;;;;;31.30;5.63;;;8.30;99.90;;;;;;5033174;28;20045;-76
2024/01/03 01:18:31;;;;;;;22.95;4.78;;;8.30;99.90;;;;;;5033121;28;20375;-76
2024/01/03 01:20:56;;;;;;;26.20;5.63;;;8.30;99.90;;;;;;5033005;28;20064;-75
2024/01/03 01:23:22;;;;;;;21.20;3.35;;;8.30;99.90;;;;;;5033109;28;20053;-76
2024/01/03 01:25:47;;;;;;;25.00;5.40;;;8.30;99.90;;;;;;5032823;28;20095;-76
2024/01/03 01:28:13;;;;;;;24.80;4.38;;;8.30;99.90;;;;;;5032865;28;20056;-76
2024/01/03 01:30:38;;;;;;;23.23;3.55;;;8.30;99.90;;;;;;5033037;28;20046;-76
2024/01/03 01:33:04;;;;;;;22.35;3.22;;;8.30;99.90;;;;;;5032829;28;20042;-76
2024/01/03 01:35:30;;;;;;;26.77;4.30;;;8.30;99.90;;;;;;5032772;28;20045;-76
2024/01/03 01:37:55;;;;;;;19.70;3.30;;;8.30;99.90;;;;;;5032538;28;20057;-76
2024/01/03 01:40:21;;;;;;;34.88;5.00;;;8.30;99.90;;;;;;5032583;28;20084;-76
2024/01/03 01:42:46;;;;;;;21.10;4.93;;;8.30;99.90;;;;;;5032733;28;20033;-76
2024/01/03 01:45:12;;;;;;;23.45;4.30;;;8.30;99.90;;;;;;5032442;28;20385;-76
2024/01/03 01:47:40;;;;;;;22.85;4.22;;;8.30;99.90;;;;;;5032570;28;20047;-75
2024/01/03 01:50:06;;;;;;;26.95;3.88;;;8.30;99.90;;;;;;5032430;28;20053;-76
2024/01/03 01:52:32;;;;;;;33.47;5.13;;;8.30;99.90;;;;;;5033837;28;20045;-76
2024/01/03 01:54:58;;;;;;;24.60;4.43;;;8.30;99.90;;;;;;5032732;28;20057;-76
2024/01/03 01:57:25;;;;;;;24.60;4.63;;;8.30;99.90;;;;;;5033499;28;20447;-76
2024/01/03 01:59:51;;;;;;;30.88;5.13;;;8.30;99.90;;;;;;5032484;28;20124;-76
2024/01/03 02:02:16;;;;;;;36.42;5.22;;;8.30;99.90;;;;;;5032659;28;20145;-76
2024/01/03 02:04:45;;;;;;;32.40;4.68;;;8.30;99.90;;;;;;5032700;28;20388;-76
2024/01/03 02:07:11;;;;;;;31.17;3.92;;;8.30;99.90;;;;;;5032188;28;20120;-76
2024/01/03 02:09:36;;;;;;;29.27;4.82;;;8.30;99.90;;;;;;5031990;28;20145;-76
2024/01/03 02:12:02;;;;;;;24.88;4.88;;;8.20;99.90;;;;;;5032208;28;20077;-76
2024/01/03 02:14:28;;;;;;;23.92;3.88;;;8.30;99.90;;;;;;5032544;28;20057;-76
2024/01/03 02:16:53;;;;;;;28.50;4.70;;;8.30;99.90;;;;;;5032453;28;20369;-76
2024/01/03 02:19:19;;;;;;;21.05;2.92;;;8.20;99.90;;;;;;5033509;28;20120;-76
2024/01/03 02:21:45;;;;;;;26.17;4.38;;;8.20;99.90;;;;;;5032005;28;20046;-75
2024/01/03 02:24:11;;;;;;;28.17;4.60;;;8.20;99.90;;;;;;5033767;28;20060;-76
2024/01/03 02:26:36;;;;;;;23.67;3.15;;;8.20;99.90;;;;;;5032147;28;20042;-76
2024/01/03 02:29:02;;;;;;;23.13;4.60;;;8.30;99.90;;;;;;5032409;28;20049;-76
2024/01/03 02:31:30;;;;;;;20.67;3.80;;;8.20;99.90;;;;;;5032450;28;20072;-76
2024/01/03 02:33:56;;;;;;;23.65;3.78;;;8.20;99.90;;;;;;5031866;28;20049;-76
2024/01/03 02:36:22;;;;;;;22.92;3.10;;;8.20;99.90;;;;;;5032274;28;20041;-76
2024/01/03 02:38:51;;;;;;;20.80;4.18;;;8.20;99.90;;;;;;5031916;28;20439;-75
2024/01/03 02:41:17;;;;;;;21.50;3.40;;;8.20;99.90;;;;;;5032129;28;20072;-75
2024/01/03 02:43:43;;;;;;;34.80;3.78;;;8.20;99.90;;;;;;5032049;28;20077;-76
2024/01/03 02:46:08;;;;;;;29.63;4.88;;;8.20;99.90;;;;;;5031849;28;20488;-76
2024/01/03 02:48:34;;;;;;;28.20;4.72;;;8.20;99.90;;;;;;5032007;28;20064;-75
2024/01/03 02:51:00;;;;;;;17.63;2.80;;;8.10;99.90;;;;;;5031755;28;20091;-75
2024/01/03 02:53:25;;;;;;;21.73;3.33;;;8.20;99.90;;;;;;5032092;28;20080;-75
2024/01/03 02:55:51;;;;;;;25.42;4.55;;;8.10;99.90;;;;;;5031892;28;20041;-75
2024/01/03 02:58:16;;;;;;;28.65;4.15;;;8.10;99.90;;;;;;5031960;28;20044;-75
2024/01/03 03:00:42;;;;;;;22.13;3.17;;;8.10;99.90;;;;;;5032200;28;20037;-75
2024/01/03 03:03:08;;;;;;;24.48;4.38;;;8.10;99.90;;;;;;5031841;28;20443;-75
2024/01/03 03:05:33;;;;;;;19.40;3.03;;;8.10;99.90;;;;;;5031713;28;20048;-75
2024/01/03 03:07:59;;;;;;;20.95;2.78;;;8.10;99.90;;;;;;5032945;28;20041;-75
2024/01/03 03:10:24;;;;;;;16.33;2.40;;;8.10;99.90;;;;;;5031635;28;20136;-75
2024/01/03 03:12:50;;;;;;;19.58;2.53;;;8.10;99.90;;;;;;5031800;28;20123;-75
2024/01/03 03:15:16;;;;;;;23.52;3.35;;;8.10;99.90;;;;;;5031831;28;20046;-75
2024/01/03 03:17:41;;;;;;;19.10;2.75;;;8.10;99.90;;;;;;5031691;28;20033;-75
2024/01/03 03:20:07;;;;;;;27.83;3.78;;;8.00;99.90;;;;;;5031754;28;20053;-75
2024/01/03 03:22:33;;;;;;;20.63;3.22;;;8.10;99.90;;;;;;5034191;28;20064;-75
2024/01/03 03:24:58;;;;;;;17.50;3.67;;;8.00;99.90;;;;;;5035167;28;20131;-75
2024/01/03 03:27:24;;;;;;;17.30;2.22;;;8.00;99.90;;;;;;5035213;28;20057;-75
2024/01/03 03:29:50;;;;;;;15.70;2.45;;;8.00;99.90;;;;;;5035198;28;20081;-75
2024/01/03 03:32:16;;;;;;;15.75;1.70;;;8.00;99.90;;;;;;5035075;28;20041;-75
2024/01/03 03:34:42;;;;;;;15.18;2.40;;;8.00;99.90;;;;;;5035203;28;20124;-75
2024/01/03 03:37:08;;;;;;;14.07;2.10;;;8.10;99.90;;;;;;5035088;28;20462;-75
2024/01/03 03:39:36;;;;;;;15.13;3.45;;;8.10;99.90;;;;;;5034998;28;20045;-74
2024/01/03 03:42:02;;;;;;;16.55;2.83;;;8.00;99.90;;;;;;5034935;28;20087;-75
2024/01/03 03:44:28;;;;;;;15.40;1.67;;;8.10;99.90;;;;;;5035169;28;20049;-75
2024/01/03 03:46:53;;;;;;;13.93;2.03;;;8.10;99.90;;;;;;5035075;28;20483;-75
2024/01/03 03:49:19;;;;;;;12.07;1.98;;;8.00;99.90;;;;;;5034881;28;20037;-75
2024/01/03 03:51:44;;;;;;;15.68;2.13;;;8.00;99.90;;;;;;5034922;28;20053;-75
2024/01/03 03:54:10;;;;;;;15.70;2.10;;;8.00;99.90;;;;;;5034833;28;20045;-75
2024/01/03 03:56:36;;;;;;;15.88;2.38;;;8.00;99.90;;;;;;5034564;28;20121;-75
2024/01/03 03:59:01;;;;;;;15.13;3.08;;;8.00;99.90;;;;;;5034620;28;20049;-75
2024/01/03 04:01:27;;;;;;;25.17;3.53;;;8.00;99.90;;;;;;5033653;28;20061;-74
2024/01/03 04:03:53;;;;;;;18.27;3.28;;;8.00;99.90;;;;;;5034642;28;20053;-75
2024/01/03 04:06:19;;;;;;;17.13;2.47;;;8.00;99.90;;;;;;5034617;28;20049;-75
2024/01/03 04:08:48;;;;;;;24.63;3.63;;;8.00;99.90;;;;;;5035421;28;20408;-75
2024/01/03 04:11:15;;;;;;;17.48;2.78;;;8.00;99.90;;;;;;5034449;28;20053;-74
2024/01/03 04:13:41;;;;;;;17.13;2.63;;;8.00;99.90;;;;;;5034258;28;20484;-75
2024/01/03 04:16:09;;;;;;;16.45;2.63;;;8.00;99.90;;;;;;5034093;28;20061;-74
2024/01/03 04:18:35;;;;;;;22.70;4.35;;;8.00;99.90;;;;;;5033961;28;20400;-74
2024/01/03 04:21:05;;;;;;;19.00;2.50;;;8.00;99.90;;;;;;5034400;28;20487;-74
2024/01/03 04:23:31;;;;;;;14.65;2.45;;;8.00;99.90;;;;;;5034086;28;20439;-74
2024/01/03 04:25:56;;;;;;;10.25;1.20;;;8.00;99.90;;;;;;5035405;28;20476;-74
2024/01/03 04:28:22;;;;;;;8.80;1.20;;;8.00;99.90;;;;;;5034057;28;20050;-74
2024/01/03 04:30:47;;;;;;;10.65;1.65;;;8.00;99.90;;;;;;5033781;28;20065;-74
2024/01/03 04:33:13;;;;;;;9.50;1.98;;;7.90;99.90;;;;;;5033709;28;20107;-74
2024/01/03 04:35:39;;;;;;;7.18;1.40;;;8.00;99.90;;;;;;5033931;28;20049;-74
2024/01/03 04:38:04;;;;;;;9.10;0.82;;;8.00;99.90;;;;;;5033772;28;20052;-75
2024/01/03 04:40:31;;;;;;;5.70;1.00;;;7.90;99.90;;;;;;5033732;28;20124;-75
2024/01/03 04:42:57;;;;;;;12.10;2.28;;;8.00;99.90;;;;;;5035104;28;20088;-75
2024/01/03 04:45:25;;;;;;;7.72;1.90;;;7.90;99.90;;;;;;5034948;28;20041;-74
2024/01/03 04:47:51;;;;;;;7.22;0.90;;;8.00;99.90;;;;;;5033507;28;20503;-74
2024/01/03 04:50:19;;;;;;;11.45;1.90;;;7.90;99.90;;;;;;5033830;28;20045;-74
2024/01/03 04:52:46;;;;;;;11.38;0.95;;;7.90;99.90;;;;;;5033567;28;20068;-74
2024/01/03 04:55:11;;;;;;;11.55;1.52;;;7.90;99.90;;;;;;5034875;28;20092;-74
2024/01/03 04:57:37;;;;;;;9.27;1.20;;;7.80;99.90;;;;;;5033403;28;20038;-74
2024/01/03 05:00:04;;;;;;;10.10;1.20;;;7.80;99.90;;;;;;5033438;28;20045;-74
2024/01/03 05:02:30;;;;;;;6.78;1.70;;;7.80;99.90;;;;;;5033423;28;20485;-74
2024/01/03 05:04:56;;;;;;;5.53;0.85;;;7.80;99.90;;;;;;5033552;28;20084;-74
2024/01/03 05:07:22;;;;;;;5.72;0.60;;;7.80;99.90;;;;;;5033509;28;20489;-74
2024/01/03 05:09:50;;;;;;;5.88;0.90;;;7.80;99.90;;;;;;5032930;28;20103;-74
2024/01/03 05:12:16;;;;;;;3.70;0.60;;;7.80;99.90;;;;;;5033235;28;20083;-74
2024/01/03 05:14:44;;;;;;;9.23;1.08;;;7.80;99.90;;;;;;5033094;28;20128;-74
2024/01/03 05:17:10;;;;;;;9.13;1.00;;;7.70;99.90;;;;;;5033236;28;20124;-74
2024/01/03 05:19:35;;;;;;;8.55;1.75;;;7.80;99.90;;;;;;5032930;28;20377;-74
2024/01/03 05:22:01;;;;;;;7.70;1.25;;;7.70;99.90;;;;;;5033033;28;20041;-74
2024/01/03 05:24:27;;;;;;;9.52;1.48;;;7.80;99.90;;;;;;5033009;28;20048;-74
2024/01/03 05:26:53;;;;;;;11.32;1.10;;;7.80;99.90;;;;;;5033049;28;20053;-75
2024/01/03 05:29:18;;;;;;;6.40;1.35;;;7.80;99.90;;;;;;5032734;28;20057;-74
2024/01/03 05:31:44;;;;;;;8.95;1.27;;;7.80;99.90;;;;;;5032779;28;20084;-74
2024/01/03 05:34:10;;;;;;;9.45;2.40;;;7.80;99.90;;;;;;5032765;28;20037;-74
2024/01/03 05:36:36;;;;;;;9.20;1.35;;;7.80;99.90;;;;;;5034051;28;20042;-74
2024/01/03 05:39:02;;;;;;;10.95;1.33;;;7.80;99.90;;;;;;5032746;28;20045;-74
2024/01/03 05:41:27;;;;;;;8.07;1.23;;;7.90;99.90;;;;;;5033021;28;20096;-74
2024/01/03 05:43:53;;;;;;;11.50;2.00;;;7.80;99.90;;;;;;5032304;28;20049;-75
2024/01/03 05:46:19;;;;;;;14.02;1.75;;;7.80;99.90;;;;;;5032826;28;20136;-74
2024/01/03 05:48:44;;;;;;;10.30;1.38;;;7.80;99.90;;;;;;5032805;28;20044;-74
2024/01/03 05:51:10;;;;;;;13.50;2.40;;;7.80;99.90;;;;;;5032554;28;20442;-74
2024/01/03 05:53:36;;;;;;;15.65;2.20;;;7.80;99.90;;;;;;5032803;28;20057;-74
2024/01/03 05:56:01;;;;;;;16.00;1.98;;;7.80;99.90;;;;;;5033706;28;20073;-74
2024/01/03 05:58:27;;;;;;;16.15;3.20;;;7.70;99.90;;;;;;5032442;28;20128;-74
2024/01/03 06:00:53;;;;;;;18.63;2.55;;;7.80;99.90;;;;;;5032690;28;20153;-74
2024/01/03 06:03:18;;;;;;;13.05;2.60;;;7.80;99.90;;;;;;5032577;28;20080;-74
2024/01/03 06:05:44;;;;;;;14.93;1.90;;;7.80;99.90;;;;;;5032418;28;20091;-74
2024/01/03 06:08:10;;;;;;;16.27;2.35;;;7.80;99.90;;;;;;5032622;28;20045;-74
2024/01/03 06:10:36;;;;;;;24.90;2.83;;;7.80;99.90;;;;;;5032300;28;20064;-74
2024/01/03 06:13:02;;;;;;;14.13;1.85;;;7.80;99.90;;;;;;5032218;28;20049;-74
2024/01/03 06:15:27;;;;;;;12.85;2.20;;;7.90;99.90;;;;;;5032490;28;20042;-74
2024/01/03 06:17:53;;;;;;;11.73;1.67;;;7.80;99.90;;;;;;5032395;28;20434;-74
2024/01/03 06:20:19;;;;;;;21.77;2.17;;;7.90;99.90;;;;;;5032493;28;20477;-74
2024/01/03 06:22:44;;;;;;;12.50;2.10;;;7.90;99.90;;;;;;5032264;28;20461;-74
2024/01/03 06:25:13;;;;;;;11.93;2.15;;;7.90;99.90;;;;;;5032225;28;20102;-74
2024/01/03 06:27:38;;;;;;;19.08;2.33;;;7.90;99.90;;;;;;5032021;28;20056;-74
2024/01/03 06:30:05;;;;;;;19.05;2.40;;;7.90;99.90;;;;;;5032324;28;20053;-74
2024/01/03 06:32:33;;;;;;;15.75;2.55;;;7.90;99.90;;;;;;5033445;28;20116;-74
2024/01/03 06:34:59;;;;;;;15.73;2.30;;;7.90;99.90;;;;;;5032378;28;20136;-74
2024/01/03 06:37:24;;;;;;;17.30;3.10;;;7.90;99.90;;;;;;5032087;28;20548;-74
2024/01/03 06:39:50;;;;;;;17.17;3.03;;;7.90;99.90;;;;;;5032391;28;20050;-74
2024/01/03 06:42:15;;;;;;;15.25;2.25;;;7.90;99.90;;;;;;5031865;28;20050;-74
2024/01/03 06:44:41;;;;;;;15.15;2.72;;;7.90;99.90;;;;;;5031984;28;20051;-74
2024/01/03 06:47:07;;;;;;;15.43;2.33;;;7.90;99.90;;;;;;5032216;28;20176;-74
2024/01/03 06:49:35;;;;;;;19.20;2.95;;;7.90;99.90;;;;;;5031952;28;20558;-74
2024/01/03 06:52:00;;;;;;;17.17;3.35;;;7.90;99.90;;;;;;5032030;28;20128;-74
2024/01/03 06:54:26;;;;;;;24.80;3.53;;;7.90;99.90;;;;;;5032211;28;20042;-74
2024/01/03 06:56:52;;;;;;;22.45;4.13;;;7.90;99.90;;;;;;5033767;28;20460;-74
2024/01/03 06:59:17;;;;;;;23.45;3.17;;;8.00;99.90;;;;;;5035498;28;20076;-74
2024/01/03 07:01:43;;;;;;;21.25;4.30;;;8.00;99.90;;;;;;5035844;28;20473;-74
2024/01/03 07:04:09;;;;;;;19.15;4.13;;;8.00;99.90;;;;;;5035940;28;20096;-74
2024/01/03 07:06:34;;;;;;;25.25;4.15;;;8.00;99.90;;;;;;5035605;28;20388;-74
2024/01/03 07:09:01;;;;;;;16.45;3.65;;;8.10;99.90;;;;;;5035110;28;20053;-74
2024/01/03 07:11:29;;;;;;;18.02;2.70;;;8.10;99.90;;;;;;5035313;28;20136;-74
2024/01/03 07:13:55;;;;;;;14.77;2.60;;;8.10;99.90;;;;;;5035549;28;20045;-74
2024/01/03 07:16:20;;;;;;;16.27;2.95;;;8.10;99.90;;;;;;5036656;28;20033;-74
2024/01/03 07:18:46;;;;;;;14.65;2.25;;;8.10;99.90;;;;;;5036581;28;20459;-74
2024/01/03 07:21:12;;;;;;;16.52;3.78;;;8.00;99.90;;;;;;5036570;28;20049;-74
2024/01/03 07:23:37;;;;;;;14.48;2.78;;;8.10;99.90;;;;;;5035317;28;20487;-74
2024/01/03 07:26:03;;;;;;;10.60;2.22;;;8.00;99.90;;;;;;5036373;28;20525;-74
2024/01/03 07:28:32;;;;;;;19.88;2.35;;;8.00;99.90;;;;;;5035550;28;20059;-74
2024/01/03 07:30:58;;;;;;;20.85;2.92;;;8.00;99.90;;;;;;5035147;28;20048;-74
2024/01/03 07:33:24;;;;;;;23.70;3.75;;;8.10;99.90;;;;;;5035381;28;20041;-74
2024/01/03 07:35:53;;;;;;;20.08;4.20;;;8.00;99.90;;;;;;5035108;28;20480;-74
2024/01/03 07:38:19;;;;;;;32.30;4.18;;;8.00;99.90;;;;;;5034988;28;20080;-74
2024/01/03 07:40:45;;;;;;;22.77;4.35;;;8.00;99.90;;;;;;5034852;28;20081;-74
2024/01/03 07:43:10;;;;;;;24.08;3.70;;;8.00;99.90;;;;;;5035089;28;20141;-74
2024/01/03 07:45:36;;;;;;;24.30;5.85;;;8.00;99.90;;;;;;5036137;28;20037;-74
2024/01/03 07:48:01;;;;;;;22.95;3.78;;;8.10;99.90;;;;;;5034600;28;20408;-74
2024/01/03 07:50:27;;;;;;;33.50;3.88;;;8.10;99.90;;;;;;5033887;28;20056;-74
2024/01/03 07:52:53;;;;;;;19.85;3.53;;;8.10;99.90;;;;;;5034695;28;20045;-74
2024/01/03 07:55:21;;;;;;;28.20;4.07;;;8.10;99.90;;;;;;5034461;28;20076;-74
2024/01/03 07:57:47;;;;;;;21.23;3.60;;;8.10;99.90;;;;;;5034555;28;20037;-74
2024/01/03 08:00:13;;;;;;;20.52;4.22;;;8.10;99.90;;;;;;5034466;28;20045;-74
2024/01/03 08:02:38;;;;;;;28.45;5.00;;;8.10;99.90;;;;;;5034608;28;20049;-73
2024/01/03 08:05:07;;;;;;;25.65;3.83;;;8.10;99.90;;;;;;5034604;28;20045;-74
2024/01/03 08:07:32;;;;;;;26.60;4.25;;;8.10;99.90;;;;;;5035334;28;20042;-74
2024/01/03 08:09:59;;;;;;;25.80;3.85;;;8.10;99.90;;;;;;5034041;28;20417;-74
2024/01/03 08:12:26;;;;;;;32.88;4.20;;;8.10;99.90;;;;;;5034311;28;20055;-74
2024/01/03 08:14:52;;;;;;;19.48;4.22;;;8.10;99.90;;;;;;5034338;28;20056;-74
2024/01/03 08:17:17;;;;;;;21.27;3.55;;;8.20;99.90;;;;;;5035575;28;20030;-74
2024/01/03 08:19:43;;;;;;;24.30;3.28;;;8.20;99.90;;;;;;5033812;28;20450;-74
2024/01/03 08:22:08;;;;;;;18.67;3.30;;;8.20;99.90;;;;;;5033937;28;20073;-74
2024/01/03 08:24:34;;;;;;;18.83;4.55;;;8.20;99.90;;;;;;5034199;28;20132;-74
2024/01/03 08:26:59;;;;;;;15.82;3.60;;;8.20;99.90;;;;;;5035221;28;20041;-74
2024/01/03 08:29:25;;;;;;;20.77;4.38;;;8.20;99.90;;;;;;5034020;28;20400;-74
2024/01/03 08:31:51;;;;;;;22.75;5.13;;;8.10;99.90;;;;;;5033790;28;20053;-74
2024/01/03 08:34:17;;;;;;;23.05;3.60;;;8.20;99.90;;;;;;5033639;28;20084;-74
2024/01/03 08:36:44;;;;;;;20.73;4.13;;;8.10;99.90;;;;;;5033499;28;20072;-74
2024/01/03 08:39:10;;;;;;;15.77;3.97;;;8.20;99.90;;;;;;5044293;28;20044;-73
2024/01/03 08:41:36;;;;;;;20.80;4.35;;;8.10;99.90;;;;;;5033437;28;20042;-73
2024/01/03 08:44:05;;;;;;;17.95;3.33;;;8.20;99.90;;;;;;5033611;28;20086;-74
2024/01/03 08:46:40;;;;;;;16.17;3.60;;;8.20;99.90;;;;;;5033313;28;20121;-73
2024/01/03 08:49:05;;;;;;;17.27;4.25;;;8.20;99.90;;;;;;5033485;28;20055;-74
2024/01/03 08:51:31;;;;;;;18.98;4.38;;;8.20;99.90;;;;;;5033169;28;20037;-73
2024/01/03 08:53:57;;;;;;;20.48;3.95;;;8.20;99.90;;;;;;5033083;28;20503;-74
2024/01/03 08:56:24;;;;;;;19.35;2.83;;;8.20;99.90;;;;;;5033191;28;20107;-75
2024/01/03 08:58:49;;;;;;;21.13;3.58;;;8.20;99.90;;;;;;5032948;28;20056;-74
2024/01/03 09:01:20;;;;;;;14.88;2.75;;;8.20;99.90;;;;;;5033271;28;20041;-74
2024/01/03 09:03:46;;;;;;;18.95;2.72;;;8.30;99.90;;;;;;5033215;28;20060;-74
2024/01/03 09:06:13;;;;;;;15.82;2.63;;;8.30;99.90;;;;;;5033017;28;20052;-74
2024/01/03 09:08:40;;;;;;;15.50;3.30;;;8.30;99.90;;;;;;5032582;28;20061;-75
2024/01/03 09:11:11;;;;;;;19.90;4.00;;;8.30;99.90;;;;;;5032893;28;20389;-74
2024/01/03 09:13:38;;;;;;;13.48;2.90;;;8.30;99.90;;;;;;5032738;28;20510;-74
2024/01/03 09:16:05;;;;;;;20.08;2.83;;;8.30;99.90;;;;;;5032712;28;20477;-74
2024/01/03 09:18:31;;;;;;;16.98;2.40;;;8.30;99.90;;;;;;5032436;28;20059;-74
2024/01/03 09:20:59;;;;;;;16.77;2.72;;;8.30;99.90;;;;;;5032705;28;20057;-77
2024/01/03 09:23:26;;;;;;;14.48;3.58;;;8.30;99.90;;;;;;5032887;28;20132;-74
2024/01/03 09:25:55;;;;;;;19.55;4.10;;;8.30;99.90;;;;;;5033827;28;20370;-74
2024/01/03 09:28:21;;;;;;;22.90;3.50;;;8.30;99.90;;;;;;5032779;28;20456;-74
2024/01/03 09:30:47;;;;;;;19.50;4.78;;;8.30;99.90;;;;;;5032424;28;20054;-74
2024/01/03 09:33:13;;;;;;;16.98;3.70;;;8.40;99.90;;;;;;5033762;28;20049;-74
2024/01/03 09:35:38;;;;;;;22.92;3.70;;;8.30;99.90;;;;;;5032328;28;20049;-74
2024/01/03 09:38:05;;;;;;;17.52;3.45;;;8.40;99.90;;;;;;5032263;28;20049;-74
2024/01/03 09:40:33;;;;;;;15.48;3.58;;;8.30;99.90;;;;;;5032279;28;20049;-73
2024/01/03 09:43:01;;;;;;;20.73;4.55;;;8.40;99.90;;;;;;5032298;28;20057;-74
2024/01/03 09:45:27;;;;;;;20.25;4.00;;;8.40;99.90;;;;;;5032246;28;20056;-74
2024/01/03 09:47:53;;;;;;;20.70;3.90;;;8.40;99.90;;;;;;5032245;28;20046;-74
2024/01/03 09:50:19;;;;;;;25.25;3.88;;;8.40;99.90;;;;;;5033652;28;20041;-75
2024/01/03 09:52:45;;;;;;;23.75;4.20;;;8.40;99.90;;;;;;5032327;28;20392;-74
2024/01/03 09:55:11;;;;;;;21.10;4.20;;;8.40;99.90;;;;;;5033350;28;20049;-74
2024/01/03 09:57:40;;;;;;;16.42;3.70;;;8.40;99.90;;;;;;5031460;28;20056;-74
2024/01/03 10:00:08;;;;;;;15.07;4.30;;;8.40;99.90;;;;;;5032011;28;20060;-74
2024/01/03 10:02:37;;;;;;;14.10;2.50;;;8.40;99.90;;;;;;5032269;28;20045;-74
2024/01/03 10:05:05;;;;;;;20.83;3.70;;;8.40;99.90;;;;;;5032085;28;20080;-74
2024/01/03 10:07:36;;;;;;;13.10;3.00;;;8.40;99.90;;;;;;5032212;28;20547;-74
2024/01/03 10:10:03;;;;;;;15.85;2.38;;;8.40;99.90;;;;;;5031795;28;20057;-74
2024/01/03 10:12:32;;;;;;;12.35;2.28;;;8.40;99.90;;;;;;5048483;28;20415;-74
2024/01/03 10:15:18;;;;;;;8.88;1.70;;;8.40;99.90;;;;;;5031930;28;20060;-74
2024/01/03 10:17:45;;;;;;;8.00;1.70;;;8.40;99.90;;;;;;5031315;28;20135;-74
2024/01/03 10:20:30;;;;;;;14.52;2.10;;;8.40;99.90;;;;;;5032221;28;20148;-74
2024/01/03 10:23:10;;;;;;;9.43;1.73;;;8.40;99.90;;;;;;5032095;28;20068;-74
2024/01/03 10:25:44;;;;;;;11.98;1.90;;;8.40;99.90;;;;;;5031214;28;20053;-74
2024/01/03 10:28:12;;;;;;;8.80;1.67;;;8.30;99.90;;;;;;5031823;28;20045;-74
2024/01/03 10:30:38;;;;;;;8.57;1.55;;;8.30;99.90;;;;;;5033239;28;20049;-74
2024/01/03 10:33:06;;;;;;;9.18;1.58;;;8.30;99.90;;;;;;5035728;28;20157;-74
2024/01/03 10:35:36;;;;;;;8.40;1.70;;;8.30;99.90;;;;;;5036046;28;20045;-74
2024/01/03 10:38:03;;;;;;;9.25;2.05;;;8.30;99.90;;;;;;5037051;28;20080;-74
2024/01/03 10:40:34;;;;;;;11.60;2.75;;;8.30;99.90;;;;;;5035958;28;20057;-74
2024/01/03 10:43:01;;;;;;;11.52;2.35;;;8.30;99.90;;;;;;5035589;28;20060;-74
2024/01/03 10:45:27;;;;;;;18.60;2.58;;;8.30;99.90;;;;;;5035833;28;20068;-74
2024/01/03 10:47:53;;;;;;;12.55;2.00;;;8.20;99.90;;;;;;5035443;28;20041;-75
2024/01/03 10:50:20;;;;;;;15.38;1.67;;;8.20;99.90;;;;;;5035752;28;20041;-74
2024/01/03 10:52:46;;;;;;;10.45;1.50;;;8.20;99.90;;;;;;5035408;28;20504;-75
2024/01/03 10:55:22;;;;;;;13.55;1.50;;;8.20;99.90;;;;;;5035446;28;20124;-74
2024/01/03 10:58:02;;;;;;;7.63;1.02;;;8.20;99.90;;;;;;5035444;28;20148;-74
2024/01/03 11:00:40;;;;;;;10.20;1.08;;;8.20;99.90;;;;;;5035528;28;20485;-75
2024/01/03 11:03:11;;;;;;;6.20;1.50;;;8.20;99.90;;;;;;5035265;28;20041;-74
2024/01/03 11:06:07;;;;;;;15.52;1.85;;;8.30;99.90;;;;;;5035529;28;20507;-75
2024/01/03 11:08:57;;;;;;;9.55;1.58;;;8.30;99.90;;;;;;5027927;28;20056;-75
2024/01/03 11:11:33;;;;;;;14.68;2.10;;;8.30;99.90;;;;;;5035189;28;20184;-74
2024/01/03 11:14:20;;;;;;;13.30;2.08;;;8.30;99.90;;;;;;5035159;28;20042;-75
2024/01/03 11:16:46;;;;;;;16.38;2.15;;;8.30;99.90;;;;;;5035315;28;20541;-74
2024/01/03 11:19:12;;;;;;;17.23;2.30;;;8.30;99.90;;;;;;5034934;28;20045;-74
2024/01/03 11:21:45;;;;;;;17.42;2.63;;;8.20;99.90;;;;;;5034936;28;20050;-74
2024/01/03 11:24:20;;;;;;;11.05;1.73;;;8.20;99.90;;;;;;5034915;28;20460;-74
2024/01/03 11:27:04;;;;;;;16.38;2.47;;;8.30;99.90;;;;;;5034966;28;20378;-75
2024/01/03 11:29:38;;;;;;;19.70;2.42;;;8.20;99.90;;;;;;5034596;28;20128;-75
2024/01/03 11:32:06;;;;;;;15.82;2.70;;;8.20;99.90;;;;;;5034787;28;20045;-75
2024/01/03 11:34:45;;;;;;;19.52;2.50;;;8.30;99.90;;;;;;5034913;28;20132;-74
2024/01/03 11:37:11;;;;;;;14.13;1.90;;;8.30;99.90;;;;;;5035049;28;20045;-75
2024/01/03 11:39:43;;;;;;;13.88;2.25;;;8.30;99.90;;;;;;5034516;28;20091;-75
2024/01/03 11:42:09;;;;;;;14.82;1.75;;;8.30;99.90;;;;;;5034055;28;20084;-75
2024/01/03 11:44:35;;;;;;;14.85;3.17;;;8.30;99.90;;;;;;5034703;28;20527;-75
2024/01/03 11:47:05;;;;;;;13.32;2.42;;;8.30;99.90;;;;;;5034760;28;20053;-75
2024/01/03 11:49:31;;;;;;;10.80;2.15;;;8.30;99.90;;;;;;5034515;28;20045;-75
2024/01/03 11:51:57;;;;;;;11.52;2.35;;;8.30;99.90;;;;;;5034547;28;20510;-74
2024/01/03 11:54:26;;;;;;;9.60;1.67;;;8.30;99.90;;;;;;5034528;28;20037;-74
2024/01/03 11:56:53;;;;;;;10.48;2.03;;;8.40;99.90;;;;;;5034212;28;20045;-75
2024/01/03 11:59:22;;;;;;;12.50;1.90;;;8.30;99.90;;;;;;5034074;28;20554;-75
2024/01/03 12:02:14;;;;;;;13.10;2.33;;;8.40;99.90;;;;;;5034468;28;20381;-75
2024/01/03 12:04:41;;;;;;;16.35;1.95;;;8.40;99.90;;;;;;5031628;28;20512;-75
2024/01/03 12:07:07;;;;;;;10.40;2.25;;;8.30;99.90;;;;;;5034084;28;20060;-75
2024/01/03 12:09:39;;;;;;;13.15;2.85;;;8.40;99.90;;;;;;5035151;28;20053;-74
2024/01/03 12:12:06;;;;;;;9.50;1.65;;;8.40;99.90;;;;;;5033999;28;20049;-74
2024/01/03 12:14:32;;;;;;;13.90;2.35;;;8.40;99.90;;;;;;5033851;28;20492;-74
2024/01/03 12:16:58;;;;;;;16.95;3.20;;;8.40;99.90;;;;;;5033828;28;20084;-74
2024/01/03 12:19:30;;;;;;;19.85;2.85;;;8.40;99.90;;;;;;5035242;28;20041;-74
2024/01/03 12:21:57;;;;;;;16.20;4.18;;;8.40;99.90;;;;;;5035080;28;20038;-76
2024/01/03 12:24:43;;;;;;;14.68;2.63;;;8.40;99.90;;;;;;5033791;28;20037;-74
2024/01/03 12:27:10;;;;;;;15.75;2.78;;;8.40;99.90;;;;;;5032840;28;20179;-74
2024/01/03 12:29:38;;;;;;;17.83;2.83;;;8.40;99.90;;;;;;5034913;28;20056;-75
2024/01/03 12:32:20;;;;;;;16.98;3.75;;;8.40;99.90;;;;;;5033593;28;20064;-75
2024/01/03 12:34:48;;;;;;;10.85;2.75;;;8.40;99.90;;;;;;5033897;28;20115;-75
2024/01/03 12:37:17;;;;;;;20.85;3.22;;;8.50;99.90;;;;;;5033444;28;20095;-75
2024/01/03 12:39:43;;;;;;;24.98;4.82;;;8.50;99.90;;;;;;5033374;28;20489;-75
2024/01/03 12:42:10;;;;;;;22.35;3.80;;;8.50;99.90;;;;;;5033651;28;20045;-74
2024/01/03 12:44:39;;;;;;;20.75;3.30;;;8.50;99.90;;;;;;5033401;28;20053;-75
2024/01/03 12:47:11;;;;;;;29.70;3.67;;;8.50;99.90;;;;;;5033351;28;20072;-74
2024/01/03 12:49:40;;;;;;;21.85;3.58;;;8.50;99.90;;;;;;5043255;28;20048;-75